createdAt,value
2018-07-21T00:00:55.813Z,18.10
2018-07-21T00:03:23.445Z,18.10
2018-07-21T00:08:18.585Z,18.00
2018-07-21T00:13:13.578Z,18.00
2018-07-21T00:15:41.175Z,18.00
2018-07-21T00:18:08.798Z,18.00
2018-07-21T00:20:36.391Z,18.10
2018-07-21T00:23:04.015Z,18.10
2018-07-21T00:25:31.611Z,18.10
2018-07-21T00:27:59.234Z,18.20
2018-07-21T00:30:26.846Z,18.20
2018-07-21T00:32:54.463Z,18.20
2018-07-21T00:35:22.059Z,18.20
2018-07-21T00:37:49.695Z,18.20
2018-07-21T00:40:17.297Z,18.30
2018-07-21T00:42:44.911Z,18.30
2018-07-21T00:47:39.908Z,18.30
2018-07-21T00:50:07.576Z,18.20
2018-07-21T00:52:35.471Z,18.10
2018-07-21T00:55:03.132Z,18.10
2018-07-21T00:57:30.727Z,18.10
2018-07-21T00:59:58.442Z,18.00
2018-07-21T01:02:26.044Z,18.00
2018-07-21T01:04:53.716Z,18.00
2018-07-21T01:07:21.319Z,18.00
2018-07-21T01:09:48.956Z,18.00
2018-07-21T01:12:16.570Z,18.00
2018-07-21T01:14:44.196Z,18.10
2018-07-21T01:17:11.806Z,18.10
2018-07-21T01:19:39.531Z,18.20
2018-07-21T01:22:07.326Z,18.20
2018-07-21T01:24:34.993Z,18.20
2018-07-21T01:27:02.615Z,18.10
2018-07-21T01:29:30.241Z,18.10
2018-07-21T01:31:57.886Z,18.10
2018-07-21T01:34:25.515Z,18.00
2018-07-21T01:36:53.114Z,18.00
2018-07-21T01:39:20.739Z,18.00
2018-07-21T01:41:48.335Z,18.00
2018-07-21T01:44:15.961Z,18.10
2018-07-21T01:46:43.863Z,18.10
2018-07-21T01:49:11.484Z,18.20
2018-07-21T01:51:39.087Z,18.20
2018-07-21T01:54:06.719Z,18.20
2018-07-21T01:56:34.339Z,18.20
2018-07-21T01:59:01.959Z,18.20
2018-07-21T02:01:29.562Z,18.20
2018-07-21T02:03:57.437Z,18.20
2018-07-21T02:06:25.039Z,18.20
2018-07-21T02:08:52.645Z,18.10
2018-07-21T02:11:20.288Z,18.10
2018-07-21T02:13:47.881Z,18.10
2018-07-21T02:16:15.544Z,18.10
2018-07-21T02:18:43.146Z,18.00
2018-07-21T02:21:10.768Z,18.10
2018-07-21T02:23:38.408Z,18.10
2018-07-21T02:26:06.019Z,18.10
2018-07-21T02:28:33.610Z,18.10
2018-07-21T02:31:01.232Z,18.10
2018-07-21T02:33:28.824Z,18.20
2018-07-21T02:35:56.456Z,18.20
2018-07-21T02:38:24.102Z,18.10
2018-07-21T02:40:51.717Z,18.10
2018-07-21T02:43:19.323Z,18.10
2018-07-21T02:45:47.020Z,18.10
2018-07-21T02:48:14.627Z,18.10
2018-07-21T02:50:42.279Z,18.10
2018-07-21T02:53:09.884Z,18.10
2018-07-21T02:55:37.515Z,18.20
2018-07-21T02:58:05.163Z,18.00
2018-07-21T03:00:32.804Z,18.10
2018-07-21T03:03:00.660Z,18.20
2018-07-21T03:05:28.300Z,18.10
2018-07-21T03:07:55.911Z,18.10
2018-07-21T03:10:23.555Z,18.10
2018-07-21T03:12:51.187Z,18.00
2018-07-21T03:15:18.812Z,18.00
2018-07-21T03:17:46.500Z,17.90
2018-07-21T03:20:14.107Z,17.90
2018-07-21T03:22:41.780Z,18.00
2018-07-21T03:25:09.431Z,18.00
2018-07-21T03:27:37.048Z,17.90
2018-07-21T03:30:04.651Z,17.90
2018-07-21T03:32:32.284Z,17.90
2018-07-21T03:34:59.928Z,17.80
2018-07-21T03:37:27.551Z,17.80
2018-07-21T03:39:55.142Z,17.80
2018-07-21T03:42:22.755Z,17.80
2018-07-21T03:44:50.355Z,17.80
2018-07-21T03:47:17.985Z,17.90
2018-07-21T03:49:45.585Z,17.90
2018-07-21T03:52:13.207Z,17.90
2018-07-21T03:54:40.804Z,18.00
2018-07-21T03:57:08.479Z,18.00
2018-07-21T03:59:36.075Z,18.00
2018-07-21T04:02:03.722Z,18.10
2018-07-21T04:04:31.327Z,18.20
2018-07-21T04:06:58.943Z,18.20
2018-07-21T04:09:26.544Z,18.20
2018-07-21T04:11:54.195Z,18.20
2018-07-21T04:14:21.811Z,18.30
2018-07-21T04:16:49.435Z,18.30
2018-07-21T04:19:17.026Z,18.40
2018-07-21T04:21:44.632Z,18.40
2018-07-21T04:24:12.289Z,18.50
2018-07-21T04:26:39.888Z,18.60
2018-07-21T04:29:07.507Z,18.60
2018-07-21T04:31:35.180Z,18.60
2018-07-21T04:34:02.799Z,18.70
2018-07-21T04:36:30.403Z,18.70
2018-07-21T04:38:58.027Z,18.80
2018-07-21T04:41:25.631Z,18.70
2018-07-21T04:43:53.247Z,18.70
2018-07-21T04:48:48.443Z,18.70
2018-07-21T04:51:16.047Z,18.80
2018-07-21T04:53:43.670Z,18.80
2018-07-21T04:56:11.315Z,19.00
2018-07-21T04:58:38.943Z,19.10
2018-07-21T05:01:06.626Z,19.10
2018-07-21T05:03:34.223Z,19.10
2018-07-21T05:06:01.827Z,19.20
2018-07-21T05:08:29.458Z,19.20
2018-07-21T05:10:57.079Z,19.30
2018-07-21T05:13:24.766Z,19.30
2018-07-21T05:15:52.360Z,19.30
2018-07-21T05:18:19.974Z,19.40
2018-07-21T05:20:47.583Z,19.40
2018-07-21T05:23:15.244Z,19.50
2018-07-21T05:25:42.839Z,19.60
2018-07-21T05:28:10.503Z,19.60
2018-07-21T05:30:38.102Z,19.70
2018-07-21T05:33:05.724Z,19.70
2018-07-21T05:35:33.331Z,19.70
2018-07-21T05:38:00.972Z,19.80
2018-07-21T05:40:28.588Z,19.80
2018-07-21T05:42:56.183Z,19.90
2018-07-21T05:45:23.807Z,20.10
2018-07-21T05:47:51.403Z,20.30
2018-07-21T05:50:19.047Z,20.40
2018-07-21T05:52:46.643Z,20.50
2018-07-21T05:55:14.259Z,20.60
2018-07-21T05:57:41.859Z,20.80
2018-07-21T06:00:11.107Z,21.00
2018-07-21T06:02:38.745Z,21.20
2018-07-21T06:05:06.568Z,21.20
2018-07-21T06:07:34.168Z,21.30
2018-07-21T06:10:01.808Z,21.40
2018-07-21T06:12:29.419Z,21.60
2018-07-21T06:14:57.043Z,21.80
2018-07-21T06:17:24.642Z,21.90
2018-07-21T06:19:52.416Z,22.10
2018-07-21T06:22:20.015Z,22.30
2018-07-21T06:24:47.733Z,22.20
2018-07-21T06:27:15.364Z,22.30
2018-07-21T06:29:43.076Z,22.40
2018-07-21T06:32:10.784Z,22.40
2018-07-21T06:34:38.424Z,22.40
2018-07-21T06:37:07.020Z,22.40
2018-07-21T06:39:34.643Z,22.60
2018-07-21T06:42:02.240Z,22.30
2018-07-21T06:44:30.159Z,22.20
2018-07-21T06:46:57.770Z,22.20
2018-07-21T06:49:25.374Z,22.10
2018-07-21T06:51:53.202Z,22.00
2018-07-21T06:54:20.832Z,22.00
2018-07-21T06:56:48.447Z,21.80
2018-07-21T06:59:16.101Z,21.60
2018-07-21T07:01:43.689Z,21.70
2018-07-21T07:04:11.319Z,22.00
2018-07-21T07:06:38.926Z,22.00
2018-07-21T07:09:07.211Z,21.80
2018-07-21T07:11:34.847Z,21.70
2018-07-21T07:14:02.451Z,21.70
2018-07-21T07:16:30.103Z,21.70
2018-07-21T07:18:57.703Z,21.90
2018-07-21T07:21:25.334Z,22.00
2018-07-21T07:23:52.959Z,22.00
2018-07-21T07:26:20.578Z,22.10
2018-07-21T07:28:48.172Z,22.30
2018-07-21T07:31:15.784Z,22.30
2018-07-21T07:33:43.374Z,22.10
2018-07-21T07:36:11.047Z,22.10
2018-07-21T07:38:38.615Z,22.40
2018-07-21T07:41:06.234Z,22.90
2018-07-21T07:43:33.836Z,23.20
2018-07-21T07:46:01.452Z,23.50
2018-07-21T07:48:29.059Z,23.90
2018-07-21T07:50:56.650Z,23.80
2018-07-21T07:53:24.291Z,23.40
2018-07-21T07:55:51.987Z,23.10
2018-07-21T07:58:19.604Z,22.70
2018-07-21T08:00:47.203Z,22.40
2018-07-21T08:03:14.815Z,22.10
2018-07-21T08:05:42.420Z,22.30
2018-07-21T08:08:10.044Z,22.40
2018-07-21T08:10:37.643Z,22.30
2018-07-21T08:13:05.279Z,22.20
2018-07-21T08:15:32.879Z,22.10
2018-07-21T08:20:27.844Z,21.80
2018-07-21T08:22:55.460Z,21.80
2018-07-21T08:25:23.080Z,21.80
2018-07-21T08:27:50.702Z,21.70
2018-07-21T08:30:18.304Z,21.70
2018-07-21T08:32:45.918Z,21.70
2018-07-21T08:35:13.546Z,21.60
2018-07-21T08:37:41.166Z,21.50
2018-07-21T08:40:09.336Z,21.50
2018-07-21T08:42:36.947Z,21.50
2018-07-21T08:45:04.676Z,21.50
2018-07-21T08:47:32.316Z,21.70
2018-07-21T08:50:00.042Z,22.20
2018-07-21T08:52:27.836Z,22.60
2018-07-21T08:54:55.439Z,22.80
2018-07-21T08:57:23.065Z,22.80
2018-07-21T08:59:50.658Z,22.90
2018-07-21T09:02:18.259Z,22.90
2018-07-21T09:04:45.968Z,22.90
2018-07-21T09:07:13.571Z,22.90
2018-07-21T09:09:41.190Z,22.90
2018-07-21T09:12:08.802Z,22.90
2018-07-21T09:14:36.418Z,22.80
2018-07-21T09:17:04.019Z,22.80
2018-07-21T09:19:31.631Z,22.80
2018-07-21T09:21:59.243Z,22.80
2018-07-21T09:24:26.874Z,22.70
2018-07-21T09:26:54.471Z,22.70
2018-07-21T09:29:22.087Z,22.60
2018-07-21T09:31:49.683Z,22.60
2018-07-21T09:34:17.377Z,22.50
2018-07-21T09:36:44.919Z,22.60
2018-07-21T09:39:12.535Z,22.60
2018-07-21T09:41:40.283Z,22.70
2018-07-21T09:44:07.931Z,22.70
2018-07-21T09:46:35.531Z,22.80
2018-07-21T09:51:31.364Z,22.90
2018-07-21T09:53:58.988Z,23.10
2018-07-21T09:56:26.843Z,23.10
2018-07-21T09:58:54.463Z,23.10
2018-07-21T10:01:22.063Z,23.00
2018-07-21T10:03:49.683Z,23.00
2018-07-21T10:06:17.278Z,22.90
2018-07-21T10:08:44.901Z,22.90
2018-07-21T10:11:12.524Z,22.60
2018-07-21T10:13:40.238Z,22.60
2018-07-21T10:16:07.876Z,22.60
2018-07-21T10:18:35.471Z,22.60
2018-07-21T10:21:03.087Z,22.50
2018-07-21T10:23:30.695Z,22.40
2018-07-21T10:26:03.697Z,22.40
2018-07-21T10:29:35.483Z,22.40
2018-07-21T10:32:03.094Z,22.30
2018-07-21T10:34:30.715Z,22.30
2018-07-21T10:36:58.330Z,22.30
2018-07-21T10:39:25.923Z,22.20
2018-07-21T10:41:53.599Z,22.30
2018-07-21T10:44:21.200Z,22.30
2018-07-21T10:46:48.820Z,22.30
2018-07-21T10:49:16.416Z,22.30
2018-07-21T10:51:44.039Z,22.40
2018-07-21T10:54:11.650Z,22.40
2018-07-21T10:56:39.343Z,22.60
2018-07-21T10:59:06.951Z,22.70
2018-07-21T11:01:34.576Z,22.90
2018-07-21T11:04:02.184Z,23.00
2018-07-21T11:06:29.819Z,23.10
2018-07-21T11:08:57.419Z,23.20
2018-07-21T11:11:25.056Z,23.40
2018-07-21T11:13:52.651Z,23.50
2018-07-21T11:16:20.272Z,23.60
2018-07-21T11:18:48.016Z,23.80
2018-07-21T11:21:16.846Z,23.90
2018-07-21T11:23:44.484Z,24.00
2018-07-21T11:26:12.396Z,24.20
2018-07-21T11:28:39.999Z,24.30
2018-07-21T11:31:07.620Z,24.40
2018-07-21T11:33:35.219Z,24.50
2018-07-21T11:36:03.224Z,24.70
2018-07-21T11:38:30.459Z,24.80
2018-07-21T11:40:58.070Z,24.80
2018-07-21T11:43:25.668Z,24.90
2018-07-21T11:45:53.291Z,24.80
2018-07-21T11:48:20.891Z,24.60
2018-07-21T11:50:48.515Z,24.60
2018-07-21T11:53:16.115Z,24.60
2018-07-21T11:55:44.745Z,24.40
2018-07-21T12:00:39.739Z,24.20
2018-07-21T12:03:07.355Z,24.00
2018-07-21T12:05:35.096Z,23.90
2018-07-21T12:08:02.722Z,24.10
2018-07-21T12:12:57.735Z,23.90
2018-07-21T12:15:25.330Z,24.00
2018-07-21T12:17:52.985Z,23.70
2018-07-21T12:20:20.799Z,23.50
2018-07-21T12:22:48.987Z,23.30
2018-07-21T12:25:16.883Z,23.30
2018-07-21T12:27:44.496Z,23.20
2018-07-21T12:30:12.092Z,23.20
2018-07-21T12:32:39.710Z,23.40
2018-07-21T12:35:07.336Z,23.30
2018-07-21T12:40:02.344Z,23.20
2018-07-21T12:42:29.980Z,23.20
2018-07-21T12:44:57.644Z,23.30
2018-07-21T12:47:25.229Z,23.20
2018-07-21T12:49:53.117Z,22.90
2018-07-21T12:52:20.752Z,22.90
2018-07-21T12:54:48.348Z,22.60
2018-07-21T12:57:15.974Z,22.50
2018-07-21T12:59:43.576Z,22.20
2018-07-21T13:02:11.175Z,22.00
2018-07-21T13:04:38.787Z,22.00
2018-07-21T13:07:06.660Z,22.10
2018-07-21T13:09:34.276Z,21.80
2018-07-21T13:12:01.965Z,21.80
2018-07-21T13:14:29.588Z,21.70
2018-07-21T13:16:57.191Z,21.50
2018-07-21T13:19:24.809Z,21.50
2018-07-21T13:21:52.536Z,21.60
2018-07-21T13:24:20.182Z,21.60
2018-07-21T13:26:47.783Z,21.80
2018-07-21T13:29:15.401Z,22.00
2018-07-21T13:31:43.012Z,22.10
2018-07-21T13:34:10.635Z,22.10
2018-07-21T13:36:38.235Z,22.10
2018-07-21T13:39:07.223Z,21.80
2018-07-21T13:41:34.827Z,21.60
2018-07-21T13:44:02.460Z,21.50
2018-07-21T13:46:30.055Z,21.50
2018-07-21T13:48:57.676Z,21.40
2018-07-21T13:51:25.280Z,21.40
2018-07-21T13:53:52.937Z,21.40
2018-07-21T13:56:20.543Z,21.40
2018-07-21T13:58:48.142Z,21.50
2018-07-21T14:01:15.755Z,21.60
2018-07-21T14:03:43.351Z,21.70
2018-07-21T14:06:10.975Z,21.80
2018-07-21T14:08:38.576Z,21.70
2018-07-21T14:11:06.263Z,21.80
2018-07-21T14:13:33.856Z,21.60
2018-07-21T14:16:01.516Z,21.70
2018-07-21T14:18:29.123Z,21.70
2018-07-21T14:20:56.779Z,21.80
2018-07-21T14:23:24.444Z,21.70
2018-07-21T14:25:52.059Z,21.70
2018-07-21T14:28:19.646Z,21.60
2018-07-21T14:30:47.272Z,21.50
2018-07-21T14:33:14.864Z,21.30
2018-07-21T14:35:42.521Z,21.20
2018-07-21T14:38:10.122Z,21.20
2018-07-21T14:40:37.740Z,21.00
2018-07-21T14:43:05.455Z,21.10
2018-07-21T14:45:33.072Z,21.10
2018-07-21T14:48:00.673Z,21.00
2018-07-21T14:50:28.309Z,21.00
2018-07-21T14:52:57.021Z,21.00
2018-07-21T14:55:24.675Z,21.20
2018-07-21T14:57:52.285Z,21.30
2018-07-21T15:00:19.976Z,21.40
2018-07-21T15:02:47.595Z,21.60
2018-07-21T15:05:15.309Z,21.60
2018-07-21T15:07:42.962Z,21.70
2018-07-21T15:10:10.696Z,21.60
2018-07-21T15:12:38.350Z,21.60
2018-07-21T15:15:06.215Z,21.60
2018-07-21T15:17:33.861Z,21.60
2018-07-21T15:20:01.464Z,21.70
2018-07-21T15:22:29.087Z,21.80
2018-07-21T15:24:56.684Z,21.80
2018-07-21T15:27:24.340Z,21.80
2018-07-21T15:29:51.943Z,21.80
2018-07-21T15:32:19.567Z,21.90
2018-07-21T15:34:47.163Z,22.10
2018-07-21T15:37:15.457Z,22.10
2018-07-21T15:39:43.069Z,22.20
2018-07-21T15:42:10.688Z,22.20
2018-07-21T15:44:38.287Z,22.30
2018-07-21T15:47:05.905Z,22.30
2018-07-21T15:49:33.509Z,22.00
2018-07-21T15:52:01.139Z,21.80
2018-07-21T15:54:28.735Z,21.80
2018-07-21T15:56:56.379Z,21.90
2018-07-21T15:59:23.980Z,21.90
2018-07-21T16:01:51.598Z,21.90
2018-07-21T16:04:19.259Z,21.90
2018-07-21T16:06:46.860Z,22.00
2018-07-21T16:09:14.480Z,22.10
2018-07-21T16:11:42.102Z,22.00
2018-07-21T16:14:09.727Z,22.00
2018-07-21T16:16:37.322Z,22.00
2018-07-21T16:19:05.168Z,22.10
2018-07-21T16:21:32.770Z,22.10
2018-07-21T16:24:00.388Z,22.10
2018-07-21T16:26:27.996Z,22.20
2018-07-21T16:28:55.644Z,22.20
2018-07-21T16:31:23.299Z,22.00
2018-07-21T16:33:50.936Z,21.90
2018-07-21T16:36:18.894Z,21.90
2018-07-21T16:38:46.788Z,21.70
2018-07-21T16:41:14.466Z,21.60
2018-07-21T16:43:42.079Z,21.60
2018-07-21T16:46:09.788Z,21.50
2018-07-21T16:48:37.490Z,21.40
2018-07-21T16:51:05.466Z,21.40
2018-07-21T16:53:33.148Z,21.30
2018-07-21T16:56:00.759Z,21.40
2018-07-21T16:58:28.381Z,21.40
2018-07-21T17:00:56.016Z,21.40
2018-07-21T17:03:23.730Z,21.40
2018-07-21T17:05:51.332Z,21.40
2018-07-21T17:08:19.222Z,21.30
2018-07-21T17:10:46.889Z,21.30
2018-07-21T17:13:14.606Z,21.20
2018-07-21T17:15:42.284Z,21.10
2018-07-21T17:18:09.879Z,21.10
2018-07-21T17:20:37.527Z,21.10
2018-07-21T17:23:05.124Z,21.00
2018-07-21T17:25:32.739Z,21.00
2018-07-21T17:28:00.337Z,21.00
2018-07-21T17:30:28.023Z,21.00
2018-07-21T17:32:55.635Z,21.00
2018-07-21T17:35:23.267Z,21.10
2018-07-21T17:37:50.927Z,21.10
2018-07-21T17:40:18.538Z,21.10
2018-07-21T17:42:46.131Z,21.20
2018-07-21T17:45:13.744Z,21.20
2018-07-21T17:47:41.435Z,21.20
2018-07-21T17:50:09.051Z,21.10
2018-07-21T17:52:36.647Z,21.20
2018-07-21T17:55:04.270Z,21.20
2018-07-21T17:57:31.863Z,21.20
2018-07-21T17:59:59.482Z,21.20
2018-07-21T18:02:27.088Z,21.20
2018-07-21T18:04:54.700Z,21.20
2018-07-21T18:07:22.312Z,21.20
2018-07-21T18:09:49.927Z,21.10
2018-07-21T18:12:17.543Z,21.00
2018-07-21T18:14:45.180Z,21.10
2018-07-21T18:17:12.779Z,20.90
2018-07-21T18:19:40.384Z,20.90
2018-07-21T18:22:08.130Z,20.90
2018-07-21T18:24:35.727Z,20.80
2018-07-21T18:27:03.499Z,20.80
2018-07-21T18:29:31.204Z,20.80
2018-07-21T18:31:58.915Z,20.70
2018-07-21T18:34:26.523Z,20.70
2018-07-21T18:36:54.140Z,20.70
2018-07-21T18:39:21.735Z,20.70
2018-07-21T18:41:49.346Z,20.60
2018-07-21T18:44:16.946Z,20.60
2018-07-21T18:46:44.559Z,20.50
2018-07-21T18:49:12.155Z,20.50
2018-07-21T18:51:39.767Z,20.50
2018-07-21T18:54:07.383Z,20.50
2018-07-21T18:56:35.008Z,20.40
2018-07-21T18:59:02.603Z,20.40
2018-07-21T19:01:30.215Z,20.30
2018-07-21T19:03:57.856Z,20.30
2018-07-21T19:06:25.474Z,20.30
2018-07-21T19:08:58.551Z,20.30
2018-07-21T19:11:26.187Z,20.20
2018-07-21T19:13:53.895Z,20.10
2018-07-21T19:16:26.767Z,20.10
2018-07-21T19:18:54.398Z,20.10
2018-07-21T19:21:22.647Z,20.10
2018-07-21T19:23:51.007Z,20.00
2018-07-21T19:26:24.107Z,19.90
2018-07-21T19:28:52.099Z,20.10
2018-07-21T19:31:19.795Z,20.00
2018-07-21T19:33:47.459Z,20.00
2018-07-21T19:36:15.055Z,20.00
2018-07-21T19:38:42.800Z,20.00
2018-07-21T19:41:15.763Z,20.00
2018-07-21T19:43:43.374Z,19.90
2018-07-21T19:46:11.407Z,19.80
2018-07-21T19:48:39.108Z,19.80
2018-07-21T19:51:06.767Z,19.80
2018-07-21T19:53:34.472Z,19.80
2018-07-21T19:56:02.455Z,19.80
2018-07-21T19:58:30.125Z,19.80
2018-07-21T20:00:57.862Z,19.80
2018-07-21T20:03:25.812Z,19.90
2018-07-21T20:05:53.412Z,19.80
2018-07-21T20:08:21.058Z,19.70
2018-07-21T20:10:48.655Z,19.70
2018-07-21T20:13:16.370Z,19.70
2018-07-21T20:15:44.012Z,19.60
2018-07-21T20:18:11.855Z,19.60
2018-07-21T20:20:39.718Z,19.60
2018-07-21T20:23:07.341Z,19.60
2018-07-21T20:25:35.168Z,19.60
2018-07-21T20:28:02.804Z,19.50
2018-07-21T20:30:30.414Z,19.60
2018-07-21T20:32:58.031Z,19.50
2018-07-21T20:35:25.630Z,19.50
2018-07-21T20:37:53.295Z,19.40
2018-07-21T20:40:20.882Z,19.40
2018-07-21T20:42:48.484Z,19.30
2018-07-21T20:45:16.160Z,19.30
2018-07-21T20:47:43.764Z,19.30
2018-07-21T20:50:11.624Z,19.30
2018-07-21T20:52:39.219Z,19.30
2018-07-21T20:55:06.868Z,19.30
2018-07-21T20:57:34.454Z,19.30
2018-07-21T21:00:02.143Z,19.30
2018-07-21T21:02:29.687Z,19.30
2018-07-21T21:04:57.308Z,19.30
2018-07-21T21:07:24.996Z,19.30
2018-07-21T21:09:52.619Z,19.30
2018-07-21T21:12:20.298Z,19.40
2018-07-21T21:14:47.889Z,19.40
2018-07-21T21:17:15.531Z,19.30
2018-07-21T21:19:43.315Z,19.30
2018-07-21T21:22:10.974Z,19.30
2018-07-21T21:24:38.588Z,19.30
2018-07-21T21:27:06.192Z,19.20
2018-07-21T21:29:33.816Z,19.20
2018-07-21T21:32:01.420Z,19.20
2018-07-21T21:34:29.043Z,19.30
2018-07-21T21:36:56.638Z,19.30
2018-07-21T21:39:24.287Z,19.30
2018-07-21T21:41:51.974Z,19.30
2018-07-21T21:44:19.538Z,19.30
2018-07-21T21:46:47.147Z,19.30
2018-07-21T21:49:14.743Z,19.30
2018-07-21T21:51:42.362Z,19.30
2018-07-21T21:54:09.960Z,19.20
2018-07-21T21:56:37.579Z,19.30
2018-07-21T21:59:05.211Z,19.30
2018-07-21T22:01:32.834Z,19.40
2018-07-21T22:04:00.431Z,19.30
2018-07-21T22:06:28.051Z,19.30
2018-07-21T22:08:55.652Z,19.30
2018-07-21T22:11:23.290Z,19.20
2018-07-21T22:13:50.892Z,19.20
2018-07-21T22:16:18.508Z,19.20
2018-07-21T22:18:46.151Z,19.20
2018-07-21T22:21:13.755Z,19.20
2018-07-21T22:23:41.352Z,19.20
2018-07-21T22:26:09.071Z,19.10
2018-07-21T22:28:36.720Z,19.10
2018-07-21T22:31:04.334Z,19.10
2018-07-21T22:33:31.926Z,19.00
2018-07-21T22:35:59.565Z,19.00
2018-07-21T22:38:27.168Z,19.10
2018-07-21T22:40:54.794Z,19.00
2018-07-21T22:43:22.414Z,19.00
2018-07-21T22:45:50.074Z,19.00
2018-07-21T22:48:17.671Z,19.00
2018-07-21T22:50:45.312Z,19.00
2018-07-21T22:53:12.927Z,19.00
2018-07-21T22:55:40.524Z,19.00
2018-07-21T22:58:08.135Z,18.90
2018-07-21T23:00:35.739Z,18.90
2018-07-21T23:03:03.371Z,19.00
2018-07-21T23:05:31.056Z,18.90
2018-07-21T23:07:58.677Z,18.90
2018-07-21T23:10:26.278Z,18.90
2018-07-21T23:12:53.947Z,19.00
2018-07-21T23:15:21.631Z,19.00
2018-07-21T23:17:49.247Z,19.00
2018-07-21T23:20:16.854Z,19.00
2018-07-21T23:22:44.471Z,19.00
2018-07-21T23:25:12.075Z,19.00
2018-07-21T23:27:39.724Z,19.00
2018-07-21T23:30:07.320Z,19.00
2018-07-21T23:32:34.936Z,19.00
2018-07-21T23:35:02.531Z,19.00
2018-07-21T23:37:30.208Z,18.90
2018-07-21T23:39:57.807Z,18.90
2018-07-21T23:42:25.415Z,19.00
2018-07-21T23:44:53.011Z,19.00
2018-07-21T23:47:20.623Z,19.00
2018-07-21T23:49:48.219Z,19.00
2018-07-21T23:52:15.840Z,19.00
2018-07-21T23:54:43.439Z,18.90
2018-07-21T23:57:11.064Z,19.00
2018-07-21T23:59:38.663Z,18.90
